Metar z połowy godziny Komunikat METAR ze strony awiacja.imgw.pl Metar G30 EPWA METAR EPWA 200930Z 20005KT 160V240 CAVOK 25/20 Q1011 NOSIG=